sensor_id;sensor_type;location;lat;lon;timestamp;temperature;humidity
37530;DHT22;23374;52.758;6.872;2023-03-01T00:02:06;0.90;1.00
37530;DHT22;23374;52.758;6.872;2023-03-01T00:05:02;0.90;1.00
37530;DHT22;23374;52.758;6.872;2023-03-01T00:07:25;0.80;1.00
37530;DHT22;23374;52.758;6.872;2023-03-01T00:09:46;0.70;1.00
37530;DHT22;23374;52.758;6.872;2023-03-01T00:12:07;0.70;1.00
37530;DHT22;23374;52.758;6.872;2023-03-01T00:14:27;0.70;1.00
37530;DHT22;23374;52.758;6.872;2023-03-01T00:16:48;0.70;1.00
37530;DHT22;23374;52.758;6.872;2023-03-01T00:19:16;0.60;1.00
37530;DHT22;23374;52.758;6.872;2023-03-01T00:21:38;0.60;41.50
37530;DHT22;23374;52.758;6.872;2023-03-01T00:23:59;0.70;99.90
37530;DHT22;23374;52.758;6.872;2023-03-01T00:26:22;0.70;99.90
37530;DHT22;23374;52.758;6.872;2023-03-01T00:28:45;0.70;49.40
37530;DHT22;23374;52.758;6.872;2023-03-01T00:31:27;0.60;55.00
37530;DHT22;23374;52.758;6.872;2023-03-01T00:33:56;0.70;99.90
37530;DHT22;23374;52.758;6.872;2023-03-01T00:36:17;0.60;99.90
37530;DHT22;23374;52.758;6.872;2023-03-01T00:38:50;0.60;99.90
37530;DHT22;23374;52.758;6.872;2023-03-01T00:41:14;0.60;99.90
37530;DHT22;23374;52.758;6.872;2023-03-01T00:43:36;0.50;1.00
37530;DHT22;23374;52.758;6.872;2023-03-01T00:46:11;0.60;1.00
37530;DHT22;23374;52.758;6.872;2023-03-01T00:48:33;0.50;1.00
37530;DHT22;23374;52.758;6.872;2023-03-01T00:50:54;0.50;99.90
37530;DHT22;23374;52.758;6.872;2023-03-01T00:53:14;0.50;99.90
37530;DHT22;23374;52.758;6.872;2023-03-01T00:55:38;0.50;1.00
37530;DHT22;23374;52.758;6.872;2023-03-01T00:57:59;0.50;1.00
37530;DHT22;23374;52.758;6.872;2023-03-01T01:00:20;0.50;99.90
37530;DHT22;23374;52.758;6.872;2023-03-01T01:02:41;0.50;99.90
37530;DHT22;23374;52.758;6.872;2023-03-01T01:05:04;0.50;99.90
37530;DHT22;23374;52.758;6.872;2023-03-01T01:07:25;0.50;99.90
37530;DHT22;23374;52.758;6.872;2023-03-01T01:09:46;0.50;99.90
37530;DHT22;23374;52.758;6.872;2023-03-01T01:12:09;0.50;97.10
37530;DHT22;23374;52.758;6.872;2023-03-01T01:14:29;0.40;99.90
37530;DHT22;23374;52.758;6.872;2023-03-01T01:16:50;0.40;99.90
37530;DHT22;23374;52.758;6.872;2023-03-01T01:19:16;0.30;99.90
37530;DHT22;23374;52.758;6.872;2023-03-01T01:21:39;0.40;99.90
37530;DHT22;23374;52.758;6.872;2023-03-01T01:24:04;0.30;99.90
37530;DHT22;23374;52.758;6.872;2023-03-01T01:26:30;0.30;99.90
37530;DHT22;23374;52.758;6.872;2023-03-01T01:28:52;0.30;99.90
37530;DHT22;23374;52.758;6.872;2023-03-01T01:31:13;0.30;99.90
37530;DHT22;23374;52.758;6.872;2023-03-01T01:33:34;0.30;99.90
37530;DHT22;23374;52.758;6.872;2023-03-01T01:35:57;0.30;99.90
37530;DHT22;23374;52.758;6.872;2023-03-01T01:38:18;0.30;93.80
37530;DHT22;23374;52.758;6.872;2023-03-01T01:40:50;0.30;99.90
37530;DHT22;23374;52.758;6.872;2023-03-01T01:43:35;0.30;99.90
37530;DHT22;23374;52.758;6.872;2023-03-01T01:46:49;0.30;97.80
37530;DHT22;23374;52.758;6.872;2023-03-01T01:49:58;0.20;30.00
37530;DHT22;23374;52.758;6.872;2023-03-01T01:52:35;0.10;99.90
37530;DHT22;23374;52.758;6.872;2023-03-01T01:55:14;0.00;99.90
37530;DHT22;23374;52.758;6.872;2023-03-01T01:57:39;0.10;99.90
37530;DHT22;23374;52.758;6.872;2023-03-01T02:00:16;0.10;99.90
37530;DHT22;23374;52.758;6.872;2023-03-01T02:02:40;0.10;99.90
37530;DHT22;23374;52.758;6.872;2023-03-01T02:09:14;0.10;99.90
37530;DHT22;23374;52.758;6.872;2023-03-01T02:11:36;0.00;99.90
37530;DHT22;23374;52.758;6.872;2023-03-01T02:13:58;0.00;99.90
37530;DHT22;23374;52.758;6.872;2023-03-01T02:16:19;0.00;99.90
37530;DHT22;23374;52.758;6.872;2023-03-01T02:18:42;0.00;99.90
37530;DHT22;23374;52.758;6.872;2023-03-01T02:23:58;0.00;99.90
37530;DHT22;23374;52.758;6.872;2023-03-01T02:26:40;0.00;99.90
37530;DHT22;23374;52.758;6.872;2023-03-01T02:29:03;0.00;99.90
37530;DHT22;23374;52.758;6.872;2023-03-01T02:31:29;0.00;99.90
37530;DHT22;23374;52.758;6.872;2023-03-01T02:34:02;0.00;99.90
37530;DHT22;23374;52.758;6.872;2023-03-01T02:36:36;0.00;99.90
37530;DHT22;23374;52.758;6.872;2023-03-01T02:38:59;-0.10;99.90
37530;DHT22;23374;52.758;6.872;2023-03-01T02:41:22;-0.10;99.90
37530;DHT22;23374;52.758;6.872;2023-03-01T02:43:46;-0.10;99.90
37530;DHT22;23374;52.758;6.872;2023-03-01T02:46:20;-0.10;99.90
37530;DHT22;23374;52.758;6.872;2023-03-01T02:48:55;-0.10;99.90
37530;DHT22;23374;52.758;6.872;2023-03-01T02:53:04;-0.10;99.90
37530;DHT22;23374;52.758;6.872;2023-03-01T02:55:29;-0.20;99.90
37530;DHT22;23374;52.758;6.872;2023-03-01T02:57:51;-0.20;99.90
37530;DHT22;23374;52.758;6.872;2023-03-01T03:00:16;-0.30;55.80
37530;DHT22;23374;52.758;6.872;2023-03-01T03:02:40;-0.30;5.10
37530;DHT22;23374;52.758;6.872;2023-03-01T03:05:00;-0.30;1.00
37530;DHT22;23374;52.758;6.872;2023-03-01T03:07:20;-0.30;1.00
37530;DHT22;23374;52.758;6.872;2023-03-01T03:09:41;-0.30;1.00
37530;DHT22;23374;52.758;6.872;2023-03-01T03:12:01;-0.30;1.00
37530;DHT22;23374;52.758;6.872;2023-03-01T03:14:21;-0.30;1.00
37530;DHT22;23374;52.758;6.872;2023-03-01T03:16:45;-0.30;1.00
37530;DHT22;23374;52.758;6.872;2023-03-01T03:19:05;-0.30;1.00
37530;DHT22;23374;52.758;6.872;2023-03-01T03:21:27;-0.40;1.00
37530;DHT22;23374;52.758;6.872;2023-03-01T03:23:47;-0.40;1.00
37530;DHT22;23374;52.758;6.872;2023-03-01T03:26:07;-0.40;1.00
37530;DHT22;23374;52.758;6.872;2023-03-01T03:28:28;-0.40;1.00
37530;DHT22;23374;52.758;6.872;2023-03-01T03:30:49;-0.40;1.00
37530;DHT22;23374;52.758;6.872;2023-03-01T03:33:11;-0.40;1.00
37530;DHT22;23374;52.758;6.872;2023-03-01T03:35:42;-0.40;1.00
37530;DHT22;23374;52.758;6.872;2023-03-01T03:38:08;-0.50;1.00
37530;DHT22;23374;52.758;6.872;2023-03-01T03:40:39;-0.50;1.00
37530;DHT22;23374;52.758;6.872;2023-03-01T03:43:06;-0.50;1.00
37530;DHT22;23374;52.758;6.872;2023-03-01T03:45:29;-0.50;1.00
37530;DHT22;23374;52.758;6.872;2023-03-01T03:47:50;-0.50;1.00
37530;DHT22;23374;52.758;6.872;2023-03-01T03:50:14;-0.50;1.00
37530;DHT22;23374;52.758;6.872;2023-03-01T03:52:35;-0.50;17.90
37530;DHT22;23374;52.758;6.872;2023-03-01T03:54:55;-0.50;1.00
37530;DHT22;23374;52.758;6.872;2023-03-01T03:57:17;-0.50;51.30
37530;DHT22;23374;52.758;6.872;2023-03-01T03:59:38;-0.50;1.00
37530;DHT22;23374;52.758;6.872;2023-03-01T04:01:59;-0.50;1.00
37530;DHT22;23374;52.758;6.872;2023-03-01T04:04:20;-0.50;1.00
37530;DHT22;23374;52.758;6.872;2023-03-01T04:06:40;-0.40;1.00
37530;DHT22;23374;52.758;6.872;2023-03-01T04:09:02;-0.50;1.00
37530;DHT22;23374;52.758;6.872;2023-03-01T04:11:23;-0.50;1.00
37530;DHT22;23374;52.758;6.872;2023-03-01T04:13:46;-0.50;1.00
37530;DHT22;23374;52.758;6.872;2023-03-01T04:16:07;-0.50;1.00
37530;DHT22;23374;52.758;6.872;2023-03-01T04:18:29;-0.50;1.00
37530;DHT22;23374;52.758;6.872;2023-03-01T04:20:51;-0.60;1.00
37530;DHT22;23374;52.758;6.872;2023-03-01T04:23:20;-0.60;1.00
37530;DHT22;23374;52.758;6.872;2023-03-01T04:25:50;-0.60;1.00
37530;DHT22;23374;52.758;6.872;2023-03-01T04:28:15;-0.60;1.00
37530;DHT22;23374;52.758;6.872;2023-03-01T04:30:39;-0.60;1.00
37530;DHT22;23374;52.758;6.872;2023-03-01T04:33:06;-0.60;1.00
37530;DHT22;23374;52.758;6.872;2023-03-01T04:35:29;-0.70;16.90
37530;DHT22;23374;52.758;6.872;2023-03-01T04:37:51;-0.60;6.00
37530;DHT22;23374;52.758;6.872;2023-03-01T04:40:12;-0.70;16.10
37530;DHT22;23374;52.758;6.872;2023-03-01T04:42:40;-0.70;31.90
37530;DHT22;23374;52.758;6.872;2023-03-01T04:45:01;-0.70;1.00
37530;DHT22;23374;52.758;6.872;2023-03-01T04:47:21;-0.70;1.00
37530;DHT22;23374;52.758;6.872;2023-03-01T04:49:42;-0.70;1.00
37530;DHT22;23374;52.758;6.872;2023-03-01T04:52:04;-0.70;1.00
37530;DHT22;23374;52.758;6.872;2023-03-01T04:54:27;-0.70;1.00
37530;DHT22;23374;52.758;6.872;2023-03-01T04:56:44;-0.70;1.00
37530;DHT22;23374;52.758;6.872;2023-03-01T04:59:05;-0.70;1.00
37530;DHT22;23374;52.758;6.872;2023-03-01T05:01:26;-0.70;1.00
37530;DHT22;23374;52.758;6.872;2023-03-01T05:03:52;-0.70;1.00
37530;DHT22;23374;52.758;6.872;2023-03-01T05:06:14;-0.70;1.00
37530;DHT22;23374;52.758;6.872;2023-03-01T05:08:39;-0.70;1.00
37530;DHT22;23374;52.758;6.872;2023-03-01T05:11:00;-0.70;1.00
37530;DHT22;23374;52.758;6.872;2023-03-01T05:13:21;-0.70;1.00
37530;DHT22;23374;52.758;6.872;2023-03-01T05:15:42;-0.70;1.00
37530;DHT22;23374;52.758;6.872;2023-03-01T05:18:03;-0.70;1.00
37530;DHT22;23374;52.758;6.872;2023-03-01T05:20:24;-0.70;1.00
37530;DHT22;23374;52.758;6.872;2023-03-01T05:22:46;-0.70;10.70
37530;DHT22;23374;52.758;6.872;2023-03-01T05:25:11;-0.70;17.90
37530;DHT22;23374;52.758;6.872;2023-03-01T05:27:36;-0.70;25.40
37530;DHT22;23374;52.758;6.872;2023-03-01T05:29:57;-0.70;62.20
37530;DHT22;23374;52.758;6.872;2023-03-01T05:32:17;-0.70;47.00
37530;DHT22;23374;52.758;6.872;2023-03-01T05:34:37;-0.70;52.80
37530;DHT22;23374;52.758;6.872;2023-03-01T05:36:59;-0.80;27.30
37530;DHT22;23374;52.758;6.872;2023-03-01T05:39:22;-0.80;1.00
37530;DHT22;23374;52.758;6.872;2023-03-01T05:41:43;-0.80;1.00
37530;DHT22;23374;52.758;6.872;2023-03-01T05:44:06;-0.80;13.70
37530;DHT22;23374;52.758;6.872;2023-03-01T05:46:27;-0.90;1.00
37530;DHT22;23374;52.758;6.872;2023-03-01T05:48:51;-0.90;1.00
37530;DHT22;23374;52.758;6.872;2023-03-01T05:51:12;-0.90;1.00
37530;DHT22;23374;52.758;6.872;2023-03-01T05:53:32;-0.90;1.00
37530;DHT22;23374;52.758;6.872;2023-03-01T05:55:52;-0.90;1.00
37530;DHT22;23374;52.758;6.872;2023-03-01T05:58:17;-0.90;1.00
37530;DHT22;23374;52.758;6.872;2023-03-01T06:00:38;-0.90;1.00
37530;DHT22;23374;52.758;6.872;2023-03-01T06:03:02;-0.90;1.00
37530;DHT22;23374;52.758;6.872;2023-03-01T06:05:23;-0.90;1.00
37530;DHT22;23374;52.758;6.872;2023-03-01T06:07:44;-0.90;1.00
37530;DHT22;23374;52.758;6.872;2023-03-01T06:10:06;-0.90;1.00
37530;DHT22;23374;52.758;6.872;2023-03-01T06:12:35;-0.90;1.00
37530;DHT22;23374;52.758;6.872;2023-03-01T06:14:56;-0.90;1.00
37530;DHT22;23374;52.758;6.872;2023-03-01T06:17:17;-1.00;1.00
37530;DHT22;23374;52.758;6.872;2023-03-01T06:19:37;-1.00;1.00
37530;DHT22;23374;52.758;6.872;2023-03-01T06:21:58;-1.00;1.00
37530;DHT22;23374;52.758;6.872;2023-03-01T06:24:19;-1.00;1.00
37530;DHT22;23374;52.758;6.872;2023-03-01T06:26:39;-1.00;1.00
37530;DHT22;23374;52.758;6.872;2023-03-01T06:29:00;-1.10;1.00
37530;DHT22;23374;52.758;6.872;2023-03-01T06:31:21;-1.10;1.00
37530;DHT22;23374;52.758;6.872;2023-03-01T06:33:57;-1.00;1.00
37530;DHT22;23374;52.758;6.872;2023-03-01T06:36:19;-1.00;1.00
37530;DHT22;23374;52.758;6.872;2023-03-01T06:38:41;-1.00;1.00
37530;DHT22;23374;52.758;6.872;2023-03-01T06:41:01;-1.00;1.00
37530;DHT22;23374;52.758;6.872;2023-03-01T06:43:24;-1.00;1.00
37530;DHT22;23374;52.758;6.872;2023-03-01T06:45:44;-0.90;5.90
37530;DHT22;23374;52.758;6.872;2023-03-01T06:48:07;-0.90;1.00
37530;DHT22;23374;52.758;6.872;2023-03-01T06:50:28;-0.90;1.00
37530;DHT22;23374;52.758;6.872;2023-03-01T06:52:48;-0.80;1.00
37530;DHT22;23374;52.758;6.872;2023-03-01T06:55:15;-0.80;1.00
37530;DHT22;23374;52.758;6.872;2023-03-01T06:57:35;-0.80;99.00
37530;DHT22;23374;52.758;6.872;2023-03-01T06:59:55;-0.70;34.90
37530;DHT22;23374;52.758;6.872;2023-03-01T07:02:17;-0.70;74.40
37530;DHT22;23374;52.758;6.872;2023-03-01T07:04:39;-0.70;99.90
37530;DHT22;23374;52.758;6.872;2023-03-01T07:07:01;-0.70;99.90
37530;DHT22;23374;52.758;6.872;2023-03-01T07:09:23;-0.70;99.90
37530;DHT22;23374;52.758;6.872;2023-03-01T07:11:44;-0.60;99.90
37530;DHT22;23374;52.758;6.872;2023-03-01T07:14:04;-0.60;99.90
37530;DHT22;23374;52.758;6.872;2023-03-01T07:16:28;-0.50;99.90
37530;DHT22;23374;52.758;6.872;2023-03-01T07:18:47;-0.50;99.90
37530;DHT22;23374;52.758;6.872;2023-03-01T07:21:10;-0.40;99.90
37530;DHT22;23374;52.758;6.872;2023-03-01T07:23:33;-0.40;99.90
37530;DHT22;23374;52.758;6.872;2023-03-01T07:25:56;-0.30;99.90
37530;DHT22;23374;52.758;6.872;2023-03-01T07:28:17;-0.30;1.00
37530;DHT22;23374;52.758;6.872;2023-03-01T07:30:37;-0.20;1.00
37530;DHT22;23374;52.758;6.872;2023-03-01T07:32:58;-0.20;1.00
37530;DHT22;23374;52.758;6.872;2023-03-01T07:35:19;-0.10;1.00
37530;DHT22;23374;52.758;6.872;2023-03-01T07:37:39;-0.10;1.00
37530;DHT22;23374;52.758;6.872;2023-03-01T07:40:01;0.00;1.00
37530;DHT22;23374;52.758;6.872;2023-03-01T07:42:23;0.10;1.00
37530;DHT22;23374;52.758;6.872;2023-03-01T07:44:59;0.20;1.00
37530;DHT22;23374;52.758;6.872;2023-03-01T07:47:19;0.30;1.00
37530;DHT22;23374;52.758;6.872;2023-03-01T07:49:41;0.40;1.00
37530;DHT22;23374;52.758;6.872;2023-03-01T07:52:02;0.40;1.00
37530;DHT22;23374;52.758;6.872;2023-03-01T07:54:23;0.50;1.00
37530;DHT22;23374;52.758;6.872;2023-03-01T07:56:44;0.60;1.00
37530;DHT22;23374;52.758;6.872;2023-03-01T07:59:05;0.70;1.00
37530;DHT22;23374;52.758;6.872;2023-03-01T08:01:25;0.90;1.00
37530;DHT22;23374;52.758;6.872;2023-03-01T08:04:01;1.00;1.00
37530;DHT22;23374;52.758;6.872;2023-03-01T08:06:22;1.10;1.00
37530;DHT22;23374;52.758;6.872;2023-03-01T08:08:43;1.20;1.00
37530;DHT22;23374;52.758;6.872;2023-03-01T08:11:05;1.30;1.00
37530;DHT22;23374;52.758;6.872;2023-03-01T08:13:30;1.40;1.00
37530;DHT22;23374;52.758;6.872;2023-03-01T08:15:51;1.40;1.00
37530;DHT22;23374;52.758;6.872;2023-03-01T08:18:12;1.50;1.00
37530;DHT22;23374;52.758;6.872;2023-03-01T08:20:33;1.60;1.00
37530;DHT22;23374;52.758;6.872;2023-03-01T08:22:54;1.70;1.00
37530;DHT22;23374;52.758;6.872;2023-03-01T08:25:15;1.80;1.00
37530;DHT22;23374;52.758;6.872;2023-03-01T08:27:35;1.90;1.00
37530;DHT22;23374;52.758;6.872;2023-03-01T08:29:56;1.90;99.90
37530;DHT22;23374;52.758;6.872;2023-03-01T08:32:16;2.00;99.90
37530;DHT22;23374;52.758;6.872;2023-03-01T08:34:37;2.10;99.90
37530;DHT22;23374;52.758;6.872;2023-03-01T08:36:58;2.10;99.90
37530;DHT22;23374;52.758;6.872;2023-03-01T08:39:20;2.30;99.90
37530;DHT22;23374;52.758;6.872;2023-03-01T08:41:40;2.40;99.90
37530;DHT22;23374;52.758;6.872;2023-03-01T08:44:01;2.40;80.00
37530;DHT22;23374;52.758;6.872;2023-03-01T08:46:23;2.50;1.00
37530;DHT22;23374;52.758;6.872;2023-03-01T08:48:48;2.60;1.00
37530;DHT22;23374;52.758;6.872;2023-03-01T08:51:17;2.70;1.00
37530;DHT22;23374;52.758;6.872;2023-03-01T08:53:38;2.80;1.00
37530;DHT22;23374;52.758;6.872;2023-03-01T08:55:54;2.90;1.00
37530;DHT22;23374;52.758;6.872;2023-03-01T08:58:15;3.00;1.00
37530;DHT22;23374;52.758;6.872;2023-03-01T09:00:35;3.10;1.00
37530;DHT22;23374;52.758;6.872;2023-03-01T09:02:56;3.10;1.00
37530;DHT22;23374;52.758;6.872;2023-03-01T09:05:17;3.20;1.00
37530;DHT22;23374;52.758;6.872;2023-03-01T09:07:38;3.30;1.00
37530;DHT22;23374;52.758;6.872;2023-03-01T09:10:02;3.40;1.00
37530;DHT22;23374;52.758;6.872;2023-03-01T09:12:23;3.40;1.00
37530;DHT22;23374;52.758;6.872;2023-03-01T09:14:46;3.50;99.90
37530;DHT22;23374;52.758;6.872;2023-03-01T09:17:08;3.60;99.90
37530;DHT22;23374;52.758;6.872;2023-03-01T09:19:30;3.70;99.90
37530;DHT22;23374;52.758;6.872;2023-03-01T09:21:51;3.80;99.90
37530;DHT22;23374;52.758;6.872;2023-03-01T09:24:16;3.90;99.90
37530;DHT22;23374;52.758;6.872;2023-03-01T09:26:38;4.00;99.90
37530;DHT22;23374;52.758;6.872;2023-03-01T09:28:57;4.10;99.90
37530;DHT22;23374;52.758;6.872;2023-03-01T09:31:21;4.10;99.90
37530;DHT22;23374;52.758;6.872;2023-03-01T09:33:50;4.20;99.90
37530;DHT22;23374;52.758;6.872;2023-03-01T09:36:18;4.20;99.90
37530;DHT22;23374;52.758;6.872;2023-03-01T09:38:39;4.20;99.90
37530;DHT22;23374;52.758;6.872;2023-03-01T09:40:58;4.30;99.90
37530;DHT22;23374;52.758;6.872;2023-03-01T09:43:57;4.40;99.90
37530;DHT22;23374;52.758;6.872;2023-03-01T09:46:21;4.40;99.90
37530;DHT22;23374;52.758;6.872;2023-03-01T09:49:09;4.50;99.90
37530;DHT22;23374;52.758;6.872;2023-03-01T09:51:35;4.50;99.90
37530;DHT22;23374;52.758;6.872;2023-03-01T09:53:59;4.50;99.90
37530;DHT22;23374;52.758;6.872;2023-03-01T09:56:32;4.50;99.90
37530;DHT22;23374;52.758;6.872;2023-03-01T09:59:29;4.60;99.90
37530;DHT22;23374;52.758;6.872;2023-03-01T10:02:19;4.60;99.90
37530;DHT22;23374;52.758;6.872;2023-03-01T10:04:51;4.60;99.90
37530;DHT22;23374;52.758;6.872;2023-03-01T10:12:18;4.60;99.90
37530;DHT22;23374;52.758;6.872;2023-03-01T10:15:48;4.70;99.90
37530;DHT22;23374;52.758;6.872;2023-03-01T10:18:22;4.70;94.40
37530;DHT22;23374;52.758;6.872;2023-03-01T10:20:58;4.70;99.90
37530;DHT22;23374;52.758;6.872;2023-03-01T10:23:24;4.70;99.90
37530;DHT22;23374;52.758;6.872;2023-03-01T10:30:42;4.80;99.90
37530;DHT22;23374;52.758;6.872;2023-03-01T10:33:13;4.80;99.90
37530;DHT22;23374;52.758;6.872;2023-03-01T10:35:35;4.90;99.90
37530;DHT22;23374;52.758;6.872;2023-03-01T10:38:11;4.90;91.90
37530;DHT22;23374;52.758;6.872;2023-03-01T10:40:35;5.00;99.90
37530;DHT22;23374;52.758;6.872;2023-03-01T10:43:00;5.00;98.70
37530;DHT22;23374;52.758;6.872;2023-03-01T10:45:41;5.10;99.90
37530;DHT22;23374;52.758;6.872;2023-03-01T10:48:24;5.10;49.10
37530;DHT22;23374;52.758;6.872;2023-03-01T10:51:05;5.20;32.70
37530;DHT22;23374;52.758;6.872;2023-03-01T10:53:47;5.20;44.50
37530;DHT22;23374;52.758;6.872;2023-03-01T10:56:11;5.20;33.20
37530;DHT22;23374;52.758;6.872;2023-03-01T10:58:37;5.30;56.10
37530;DHT22;23374;52.758;6.872;2023-03-01T11:01:25;5.40;73.90
37530;DHT22;23374;52.758;6.872;2023-03-01T11:06:35;5.50;73.80
37530;DHT22;23374;52.758;6.872;2023-03-01T11:08:56;5.50;59.60
37530;DHT22;23374;52.758;6.872;2023-03-01T11:11:35;5.60;99.20
37530;DHT22;23374;52.758;6.872;2023-03-01T11:14:25;5.70;15.20
37530;DHT22;23374;52.758;6.872;2023-03-01T11:16:49;5.70;28.60
37530;DHT22;23374;52.758;6.872;2023-03-01T11:19:21;5.70;3.60
37530;DHT22;23374;52.758;6.872;2023-03-01T11:22:18;5.80;34.40
37530;DHT22;23374;52.758;6.872;2023-03-01T11:24:44;5.80;1.00
37530;DHT22;23374;52.758;6.872;2023-03-01T11:27:55;5.80;32.20
37530;DHT22;23374;52.758;6.872;2023-03-01T11:30:38;5.90;1.80
37530;DHT22;23374;52.758;6.872;2023-03-01T11:33:41;5.90;21.80
37530;DHT22;23374;52.758;6.872;2023-03-01T11:36:48;5.90;26.30
37530;DHT22;23374;52.758;6.872;2023-03-01T11:39:48;5.90;37.60
37530;DHT22;23374;52.758;6.872;2023-03-01T11:43:02;5.90;14.90
37530;DHT22;23374;52.758;6.872;2023-03-01T12:01:32;6.10;69.50
37530;DHT22;23374;52.758;6.872;2023-03-01T12:25:06;6.50;2.00
37530;DHT22;23374;52.758;6.872;2023-03-01T12:50:04;6.80;1.00
37530;DHT22;23374;52.758;6.872;2023-03-01T12:56:06;7.00;20.10
37530;DHT22;23374;52.758;6.872;2023-03-01T12:58:39;7.10;1.00
37530;DHT22;23374;52.758;6.872;2023-03-01T13:01:36;7.10;4.70
37530;DHT22;23374;52.758;6.872;2023-03-01T13:06:31;7.10;1.00
37530;DHT22;23374;52.758;6.872;2023-03-01T13:09:40;7.10;1.00
37530;DHT22;23374;52.758;6.872;2023-03-01T13:13:12;7.20;1.00
37530;DHT22;23374;52.758;6.872;2023-03-01T13:15:37;7.20;1.00
37530;DHT22;23374;52.758;6.872;2023-03-01T13:18:36;7.30;22.30
37530;DHT22;23374;52.758;6.872;2023-03-01T13:20:59;7.30;1.00
37530;DHT22;23374;52.758;6.872;2023-03-01T13:23:31;7.30;1.00
37530;DHT22;23374;52.758;6.872;2023-03-01T13:26:15;7.30;13.40
37530;DHT22;23374;52.758;6.872;2023-03-01T13:28:53;7.20;1.00
37530;DHT22;23374;52.758;6.872;2023-03-01T13:32:02;7.20;1.00
37530;DHT22;23374;52.758;6.872;2023-03-01T13:34:42;7.20;1.00
37530;DHT22;23374;52.758;6.872;2023-03-01T13:37:35;7.30;1.00
37530;DHT22;23374;52.758;6.872;2023-03-01T13:40:00;7.30;1.00
37530;DHT22;23374;52.758;6.872;2023-03-01T13:42:41;7.30;1.00
37530;DHT22;23374;52.758;6.872;2023-03-01T13:45:31;7.30;1.00
37530;DHT22;23374;52.758;6.872;2023-03-01T13:48:04;7.30;1.00
37530;DHT22;23374;52.758;6.872;2023-03-01T13:50:37;7.30;1.00
37530;DHT22;23374;52.758;6.872;2023-03-01T13:53:02;7.30;1.00
37530;DHT22;23374;52.758;6.872;2023-03-01T13:55:56;7.40;1.50
37530;DHT22;23374;52.758;6.872;2023-03-01T13:59:15;7.30;1.00
37530;DHT22;23374;52.758;6.872;2023-03-01T14:01:36;7.40;1.00
37530;DHT22;23374;52.758;6.872;2023-03-01T14:03:57;7.40;13.70
37530;DHT22;23374;52.758;6.872;2023-03-01T14:06:29;7.40;4.70
37530;DHT22;23374;52.758;6.872;2023-03-01T14:09:20;7.50;1.00
37530;DHT22;23374;52.758;6.872;2023-03-01T14:12:32;7.50;1.00
37530;DHT22;23374;52.758;6.872;2023-03-01T14:15:22;7.50;10.60
37530;DHT22;23374;52.758;6.872;2023-03-01T14:18:18;7.50;1.00
37530;DHT22;23374;52.758;6.872;2023-03-01T14:20:45;7.50;1.00
37530;DHT22;23374;52.758;6.872;2023-03-01T14:23:17;7.50;1.60
37530;DHT22;23374;52.758;6.872;2023-03-01T14:25:50;7.60;8.40
37530;DHT22;23374;52.758;6.872;2023-03-01T14:28:27;7.60;1.00
37530;DHT22;23374;52.758;6.872;2023-03-01T14:30:54;7.60;1.00
37530;DHT22;23374;52.758;6.872;2023-03-01T14:33:24;7.60;12.20
37530;DHT22;23374;52.758;6.872;2023-03-01T14:36:11;7.70;2.20
37530;DHT22;23374;52.758;6.872;2023-03-01T14:38:44;7.70;6.30
37530;DHT22;23374;52.758;6.872;2023-03-01T14:41:22;7.60;1.00
37530;DHT22;23374;52.758;6.872;2023-03-01T14:44:19;7.60;1.00
37530;DHT22;23374;52.758;6.872;2023-03-01T14:46:44;7.70;1.00
37530;DHT22;23374;52.758;6.872;2023-03-01T14:49:30;7.60;1.00
37530;DHT22;23374;52.758;6.872;2023-03-01T14:52:16;7.60;5.60
37530;DHT22;23374;52.758;6.872;2023-03-01T14:54:51;7.70;1.00
37530;DHT22;23374;52.758;6.872;2023-03-01T14:57:20;7.70;1.00
37530;DHT22;23374;52.758;6.872;2023-03-01T14:59:44;7.70;22.40
37530;DHT22;23374;52.758;6.872;2023-03-01T15:02:18;7.80;27.80
37530;DHT22;23374;52.758;6.872;2023-03-01T15:04:41;7.80;7.40
37530;DHT22;23374;52.758;6.872;2023-03-01T15:07:02;7.90;2.70
37530;DHT22;23374;52.758;6.872;2023-03-01T15:09:24;8.00;39.50
37530;DHT22;23374;52.758;6.872;2023-03-01T15:11:45;8.00;46.10
37530;DHT22;23374;52.758;6.872;2023-03-01T15:17:43;8.10;1.00
37530;DHT22;23374;52.758;6.872;2023-03-01T15:20:18;8.10;1.00
37530;DHT22;23374;52.758;6.872;2023-03-01T15:22:46;8.10;5.10
37530;DHT22;23374;52.758;6.872;2023-03-01T15:25:21;8.10;8.80
37530;DHT22;23374;52.758;6.872;2023-03-01T15:27:53;8.10;1.00
37530;DHT22;23374;52.758;6.872;2023-03-01T15:30:24;8.10;1.00
37530;DHT22;23374;52.758;6.872;2023-03-01T15:32:48;8.10;1.00
37530;DHT22;23374;52.758;6.872;2023-03-01T15:38:58;8.10;1.00
37530;DHT22;23374;52.758;6.872;2023-03-01T15:41:29;8.20;1.00
37530;DHT22;23374;52.758;6.872;2023-03-01T15:43:54;8.20;1.00
37530;DHT22;23374;52.758;6.872;2023-03-01T15:46:21;8.20;22.20
37530;DHT22;23374;52.758;6.872;2023-03-01T15:48:59;8.30;12.50
37530;DHT22;23374;52.758;6.872;2023-03-01T15:51:34;8.40;1.00
37530;DHT22;23374;52.758;6.872;2023-03-01T15:53:57;8.30;7.70
37530;DHT22;23374;52.758;6.872;2023-03-01T15:56:19;8.30;1.00
37530;DHT22;23374;52.758;6.872;2023-03-01T15:58:40;8.30;7.10
37530;DHT22;23374;52.758;6.872;2023-03-01T16:01:01;8.20;11.50
37530;DHT22;23374;52.758;6.872;2023-03-01T16:03:23;8.30;28.50
37530;DHT22;23374;52.758;6.872;2023-03-01T16:05:44;8.20;1.00
37530;DHT22;23374;52.758;6.872;2023-03-01T16:08:06;8.10;14.50
37530;DHT22;23374;52.758;6.872;2023-03-01T16:10:27;8.10;42.70
37530;DHT22;23374;52.758;6.872;2023-03-01T16:12:52;8.00;41.30
37530;DHT22;23374;52.758;6.872;2023-03-01T16:15:30;8.00;30.00
37530;DHT22;23374;52.758;6.872;2023-03-01T16:17:52;8.00;25.20
37530;DHT22;23374;52.758;6.872;2023-03-01T16:20:15;7.90;53.30
37530;DHT22;23374;52.758;6.872;2023-03-01T16:22:51;7.90;45.80
37530;DHT22;23374;52.758;6.872;2023-03-01T16:25:14;7.90;83.20
37530;DHT22;23374;52.758;6.872;2023-03-01T16:27:37;7.80;31.40
37530;DHT22;23374;52.758;6.872;2023-03-01T16:29:57;7.70;28.70
37530;DHT22;23374;52.758;6.872;2023-03-01T16:32:17;7.70;43.70
37530;DHT22;23374;52.758;6.872;2023-03-01T16:34:38;7.70;35.00
37530;DHT22;23374;52.758;6.872;2023-03-01T16:36:58;7.60;52.50
37530;DHT22;23374;52.758;6.872;2023-03-01T16:39:19;7.60;67.50
37530;DHT22;23374;52.758;6.872;2023-03-01T16:41:39;7.60;78.30
37530;DHT22;23374;52.758;6.872;2023-03-01T16:43:59;7.50;99.90
37530;DHT22;23374;52.758;6.872;2023-03-01T16:46:27;7.50;99.90
37530;DHT22;23374;52.758;6.872;2023-03-01T16:48:49;7.40;80.80
37530;DHT22;23374;52.758;6.872;2023-03-01T16:51:10;7.40;94.00
37530;DHT22;23374;52.758;6.872;2023-03-01T16:53:31;7.30;99.90
37530;DHT22;23374;52.758;6.872;2023-03-01T16:55:57;7.30;99.90
37530;DHT22;23374;52.758;6.872;2023-03-01T16:58:18;7.20;99.90
37530;DHT22;23374;52.758;6.872;2023-03-01T17:00:38;7.20;99.90
37530;DHT22;23374;52.758;6.872;2023-03-01T17:02:59;7.20;99.90
37530;DHT22;23374;52.758;6.872;2023-03-01T17:05:20;7.10;99.90
37530;DHT22;23374;52.758;6.872;2023-03-01T17:07:44;7.10;99.90
37530;DHT22;23374;52.758;6.872;2023-03-01T17:10:07;7.10;99.90
37530;DHT22;23374;52.758;6.872;2023-03-01T17:12:28;7.00;99.90
37530;DHT22;23374;52.758;6.872;2023-03-01T17:14:49;7.00;99.90
37530;DHT22;23374;52.758;6.872;2023-03-01T17:17:11;7.00;99.90
37530;DHT22;23374;52.758;6.872;2023-03-01T17:19:31;6.90;99.90
37530;DHT22;23374;52.758;6.872;2023-03-01T17:21:52;6.90;99.90
37530;DHT22;23374;52.758;6.872;2023-03-01T17:24:24;6.80;99.90
37530;DHT22;23374;52.758;6.872;2023-03-01T17:26:46;6.80;99.90